createdAt,value
2022-09-20T00:01:08.131Z,100.00
2022-09-20T00:03:36.892Z,100.00
2022-09-20T00:06:05.275Z,100.00
2022-09-20T00:08:32.066Z,100.00
2022-09-20T00:11:03.789Z,100.00
2022-09-20T00:13:31.111Z,100.00
2022-09-20T00:15:58.017Z,100.00
2022-09-20T00:18:25.211Z,100.00
2022-09-20T00:20:52.403Z,100.00
2022-09-20T00:23:19.833Z,100.00
2022-09-20T00:26:00.679Z,100.00
2022-09-20T00:28:28.945Z,100.00
2022-09-20T00:30:56.523Z,100.00
2022-09-20T00:33:45.443Z,100.00
2022-09-20T00:36:12.470Z,100.00
2022-09-20T00:38:39.330Z,100.00
2022-09-20T00:41:06.007Z,100.00
2022-09-20T00:43:41.438Z,100.00
2022-09-20T00:46:42.765Z,100.00
2022-09-20T00:49:25.749Z,100.00
2022-09-20T00:51:57.524Z,100.00
2022-09-20T00:54:26.422Z,100.00
2022-09-20T00:56:53.422Z,100.00
2022-09-20T00:59:28.309Z,100.00
2022-09-20T01:02:05.623Z,100.00
2022-09-20T01:04:35.456Z,100.00
2022-09-20T01:07:05.945Z,100.00
2022-09-20T01:09:32.659Z,100.00
2022-09-20T01:12:03.706Z,100.00
2022-09-20T01:14:30.877Z,100.00
2022-09-20T01:17:02.651Z,100.00
2022-09-20T01:19:48.653Z,100.00
2022-09-20T01:22:27.506Z,100.00
2022-09-20T01:25:17.921Z,100.00
2022-09-20T01:27:59.194Z,100.00
2022-09-20T01:30:36.688Z,100.00
2022-09-20T01:33:28.525Z,100.00
2022-09-20T01:35:58.683Z,100.00
2022-09-20T01:38:45.467Z,100.00
2022-09-20T01:41:26.038Z,100.00
2022-09-20T01:43:58.816Z,100.00
2022-09-20T01:46:31.468Z,100.00
2022-09-20T01:49:16.490Z,100.00
2022-09-20T01:52:12.265Z,100.00
2022-09-20T01:55:06.838Z,100.00
2022-09-20T01:57:58.389Z,100.00
2022-09-20T02:00:37.075Z,100.00
2022-09-20T02:03:23.746Z,100.00
2022-09-20T02:06:12.786Z,100.00
2022-09-20T02:09:21.607Z,100.00
2022-09-20T02:11:59.225Z,100.00
2022-09-20T02:14:35.264Z,100.00
2022-09-20T02:17:35.990Z,100.00
2022-09-20T02:20:30.674Z,100.00
2022-09-20T02:23:22.455Z,100.00
2022-09-20T02:26:08.566Z,100.00
2022-09-20T02:28:53.642Z,100.00
2022-09-20T02:31:32.532Z,100.00
2022-09-20T02:34:16.216Z,100.00
2022-09-20T02:37:01.711Z,100.00
2022-09-20T02:39:36.719Z,100.00
2022-09-20T02:42:17.320Z,100.00
2022-09-20T02:45:22.140Z,100.00
2022-09-20T02:47:48.729Z,100.00
2022-09-20T02:50:34.148Z,100.00
2022-09-20T02:53:26.967Z,100.00
2022-09-20T02:56:34.962Z,100.00
2022-09-20T02:59:05.673Z,100.00
2022-09-20T03:01:56.294Z,100.00
2022-09-20T03:04:48.306Z,100.00
2022-09-20T03:07:20.818Z,100.00
2022-09-20T03:10:14.201Z,100.00
2022-09-20T03:13:02.743Z,100.00
2022-09-20T03:15:54.341Z,100.00
2022-09-20T03:19:03.034Z,100.00
2022-09-20T03:21:50.957Z,100.00
2022-09-20T03:25:04.529Z,100.00
2022-09-20T03:27:44.655Z,100.00
2022-09-20T03:30:26.272Z,100.00
2022-09-20T03:33:15.881Z,100.00
2022-09-20T03:36:01.258Z,100.00
2022-09-20T03:39:01.755Z,100.00
2022-09-20T03:41:55.019Z,100.00
2022-09-20T03:44:38.220Z,100.00
2022-09-20T03:47:17.294Z,100.00
2022-09-20T03:50:13.916Z,100.00
2022-09-20T03:53:05.158Z,100.00
2022-09-20T03:55:53.728Z,100.00
2022-09-20T03:58:42.234Z,100.00
2022-09-20T04:01:28.120Z,100.00
2022-09-20T04:04:12.420Z,100.00
2022-09-20T04:06:38.934Z,100.00
2022-09-20T04:09:25.939Z,100.00
2022-09-20T04:12:11.207Z,100.00
2022-09-20T04:14:41.522Z,100.00
2022-09-20T04:17:39.509Z,100.00
2022-09-20T04:20:13.803Z,100.00
2022-09-20T04:22:44.638Z,100.00
2022-09-20T04:25:19.326Z,100.00
2022-09-20T04:27:58.598Z,100.00
2022-09-20T04:30:30.194Z,100.00
2022-09-20T04:33:13.068Z,100.00
2022-09-20T04:36:30.280Z,100.00
2022-09-20T04:39:25.508Z,100.00
2022-09-20T04:42:30.098Z,100.00
2022-09-20T04:45:09.785Z,100.00
2022-09-20T04:48:06.712Z,100.00
2022-09-20T04:51:07.119Z,100.00
2022-09-20T04:53:55.006Z,100.00
2022-09-20T04:56:38.150Z,100.00
2022-09-20T04:59:10.312Z,100.00
2022-09-20T05:01:55.911Z,100.00
2022-09-20T05:04:38.329Z,100.00
2022-09-20T05:07:23.065Z,100.00
2022-09-20T05:10:27.072Z,100.00
2022-09-20T05:13:00.701Z,100.00
2022-09-20T05:15:50.824Z,100.00
2022-09-20T05:18:26.749Z,100.00
2022-09-20T05:21:19.971Z,100.00
2022-09-20T05:23:52.917Z,100.00
2022-09-20T05:26:46.919Z,100.00
2022-09-20T05:29:28.986Z,100.00
2022-09-20T05:32:11.905Z,100.00
2022-09-20T05:35:01.961Z,100.00
2022-09-20T05:37:44.124Z,100.00
2022-09-20T05:40:22.284Z,100.00
2022-09-20T05:43:00.489Z,100.00
2022-09-20T05:46:04.876Z,100.00
2022-09-20T05:49:03.860Z,100.00
2022-09-20T05:51:47.733Z,100.00
2022-09-20T05:54:17.442Z,100.00
2022-09-20T05:57:21.255Z,100.00
2022-09-20T06:00:14.104Z,100.00
2022-09-20T06:02:57.133Z,100.00
2022-09-20T06:05:58.950Z,100.00
2022-09-20T06:08:43.782Z,100.00
2022-09-20T06:11:29.190Z,100.00
2022-09-20T06:14:27.862Z,100.00
2022-09-20T06:17:33.065Z,100.00
2022-09-20T06:20:16.018Z,100.00
2022-09-20T06:22:49.810Z,100.00
2022-09-20T06:25:23.650Z,100.00
2022-09-20T06:27:52.575Z,100.00
2022-09-20T06:30:34.778Z,100.00
2022-09-20T06:33:13.081Z,100.00
2022-09-20T06:36:23.665Z,100.00
2022-09-20T06:39:44.837Z,100.00
2022-09-20T06:42:11.743Z,100.00
2022-09-20T06:44:41.220Z,100.00
2022-09-20T06:47:14.266Z,100.00
2022-09-20T06:49:42.348Z,100.00
2022-09-20T06:52:14.568Z,100.00
2022-09-20T06:54:45.622Z,100.00
2022-09-20T06:57:15.956Z,100.00
2022-09-20T06:59:42.521Z,100.00
2022-09-20T07:02:09.059Z,100.00
2022-09-20T07:04:35.946Z,98.82
2022-09-20T07:07:09.121Z,99.22
2022-09-20T07:09:36.532Z,98.79
2022-09-20T07:12:03.313Z,98.52
2022-09-20T07:14:29.996Z,97.27
2022-09-20T07:16:56.826Z,96.97
2022-09-20T07:19:23.463Z,96.04
2022-09-20T07:21:50.266Z,95.63
2022-09-20T07:24:17.784Z,95.01
2022-09-20T07:27:03.517Z,94.04
2022-09-20T07:29:32.863Z,94.41
2022-09-20T07:31:59.550Z,93.89
2022-09-20T07:34:27.282Z,92.84
2022-09-20T07:36:53.960Z,91.39
2022-09-20T07:39:20.673Z,91.44
2022-09-20T07:41:48.642Z,92.28
2022-09-20T07:44:21.592Z,89.35
2022-09-20T07:46:59.378Z,85.61
2022-09-20T07:49:29.922Z,86.18
2022-09-20T07:51:56.685Z,85.61
2022-09-20T07:54:23.286Z,86.41
2022-09-20T07:56:50.145Z,86.12
2022-09-20T07:59:16.998Z,85.45
2022-09-20T08:01:43.911Z,82.06
2022-09-20T08:04:11.261Z,84.79
2022-09-20T08:06:44.774Z,83.53
2022-09-20T08:09:12.211Z,81.39
2022-09-20T08:11:40.512Z,82.65
2022-09-20T08:14:09.037Z,79.58
2022-09-20T08:16:42.009Z,80.53
2022-09-20T08:19:09.417Z,81.65
2022-09-20T08:21:38.328Z,81.71
2022-09-20T08:24:05.229Z,80.95
2022-09-20T08:26:32.317Z,81.75
2022-09-20T08:29:00.181Z,82.75
2022-09-20T08:31:30.674Z,87.54
2022-09-20T08:33:59.176Z,86.40
2022-09-20T08:36:27.567Z,84.54
2022-09-20T08:41:59.313Z,83.54
2022-09-20T08:44:35.191Z,81.32
2022-09-20T08:47:25.989Z,78.59
2022-09-20T08:49:57.710Z,82.32
2022-09-20T08:52:36.184Z,84.07
2022-09-20T08:55:39.676Z,82.84
2022-09-20T08:58:11.980Z,82.70
2022-09-20T09:00:42.968Z,82.12
2022-09-20T09:03:17.179Z,82.68
2022-09-20T09:05:48.328Z,78.54
2022-09-20T09:08:18.553Z,80.06
2022-09-20T09:10:53.095Z,77.47
2022-09-20T09:13:53.200Z,78.05
2022-09-20T09:16:28.756Z,78.01
2022-09-20T09:19:33.378Z,74.70
2022-09-20T09:22:03.310Z,76.94
2022-09-20T09:24:33.328Z,76.82
2022-09-20T09:27:19.569Z,76.37
2022-09-20T09:30:19.690Z,73.31
2022-09-20T09:32:46.648Z,74.56
2022-09-20T09:35:24.640Z,70.92
2022-09-20T09:38:02.302Z,70.40
2022-09-20T09:40:31.811Z,71.31
2022-09-20T09:43:02.643Z,71.98
2022-09-20T09:45:38.643Z,71.02
2022-09-20T09:48:22.614Z,66.48
2022-09-20T09:50:49.315Z,65.75
2022-09-20T09:53:20.695Z,67.52
2022-09-20T09:56:26.941Z,63.03
2022-09-20T09:59:02.516Z,68.07
2022-09-20T10:01:47.903Z,68.47
2022-09-20T10:04:35.730Z,66.84
2022-09-20T10:07:33.643Z,65.98
2022-09-20T10:10:28.086Z,66.72
2022-09-20T10:13:13.397Z,66.74
2022-09-20T10:15:56.388Z,65.98
2022-09-20T10:18:33.883Z,66.08
2022-09-20T10:21:18.598Z,67.52
2022-09-20T10:24:04.942Z,68.35
2022-09-20T10:26:50.669Z,67.74
2022-09-20T10:29:33.791Z,66.62
2022-09-20T10:32:13.887Z,65.88
2022-09-20T10:34:41.640Z,67.22
2022-09-20T10:37:24.091Z,67.79
2022-09-20T10:40:07.170Z,70.22
2022-09-20T10:43:05.109Z,68.64
2022-09-20T10:46:14.033Z,66.45
2022-09-20T10:48:47.438Z,66.83
2022-09-20T10:51:34.083Z,66.17
2022-09-20T10:54:40.049Z,64.67
2022-09-20T10:57:46.850Z,63.97
2022-09-20T11:00:25.536Z,63.76
2022-09-20T11:03:10.796Z,63.44
2022-09-20T11:06:12.650Z,58.32
2022-09-20T11:08:42.806Z,58.73
2022-09-20T11:11:34.709Z,57.54
2022-09-20T11:14:19.377Z,59.49
2022-09-20T11:17:02.324Z,57.12
2022-09-20T11:19:48.474Z,55.73
2022-09-20T11:22:21.628Z,54.72
2022-09-20T11:24:53.945Z,56.22
2022-09-20T11:27:29.525Z,58.08
2022-09-20T11:30:16.803Z,56.46
2022-09-20T11:33:05.738Z,56.17
2022-09-20T11:35:46.306Z,56.40
2022-09-20T11:38:22.310Z,57.87
2022-09-20T11:41:08.726Z,58.10
2022-09-20T11:43:42.696Z,59.84
2022-09-20T11:46:13.813Z,60.69
2022-09-20T11:48:44.550Z,60.35
2022-09-20T11:51:20.231Z,61.65
2022-09-20T11:53:55.934Z,61.81
2022-09-20T11:56:27.679Z,62.21
2022-09-20T11:58:57.246Z,62.59
2022-09-20T12:01:29.028Z,61.77
2022-09-20T12:04:34.767Z,59.51
2022-09-20T12:07:18.315Z,61.58
2022-09-20T12:10:06.362Z,61.33
2022-09-20T12:12:41.592Z,60.27
2022-09-20T12:15:36.971Z,61.92
2022-09-20T12:18:34.546Z,60.72
2022-09-20T12:21:16.178Z,60.54
2022-09-20T12:23:45.334Z,61.07
2022-09-20T12:26:21.507Z,62.47
2022-09-20T12:28:51.034Z,62.02
2022-09-20T12:31:29.651Z,63.20
2022-09-20T12:34:10.291Z,61.98
2022-09-20T12:36:39.213Z,61.79
2022-09-20T12:39:10.968Z,63.60
2022-09-20T12:41:52.978Z,63.02
2022-09-20T12:44:41.842Z,64.78
2022-09-20T12:47:35.618Z,66.46
2022-09-20T12:50:34.135Z,66.28
2022-09-20T12:53:04.539Z,66.19
2022-09-20T12:55:33.941Z,66.39
2022-09-20T12:58:18.601Z,65.09
2022-09-20T13:00:59.288Z,65.00
2022-09-20T13:03:38.509Z,66.07
2022-09-20T13:06:12.174Z,66.59
2022-09-20T13:08:48.276Z,66.84
2022-09-20T13:11:22.396Z,66.57
2022-09-20T13:14:18.930Z,67.06
2022-09-20T13:16:54.590Z,67.45
2022-09-20T13:19:39.260Z,69.09
2022-09-20T13:22:16.242Z,67.47
2022-09-20T13:24:51.769Z,66.90
2022-09-20T13:27:23.831Z,66.28
2022-09-20T13:29:50.992Z,64.94
2022-09-20T13:32:28.981Z,64.58
2022-09-20T13:35:14.895Z,62.68
2022-09-20T13:38:00.159Z,61.03
2022-09-20T13:40:34.353Z,60.72
2022-09-20T13:43:22.533Z,60.71
2022-09-20T13:45:56.193Z,60.27
2022-09-20T13:48:28.004Z,58.12
2022-09-20T13:51:04.324Z,60.17
2022-09-20T13:53:46.314Z,60.98
2022-09-20T13:56:29.759Z,60.13
2022-09-20T13:58:59.028Z,61.98
2022-09-20T14:01:32.945Z,60.75
2022-09-20T14:04:05.218Z,60.26
2022-09-20T14:06:32.373Z,61.03
2022-09-20T14:09:08.347Z,58.38
2022-09-20T14:11:38.468Z,58.45
2022-09-20T14:14:07.109Z,57.87
2022-09-20T14:16:39.655Z,57.92
2022-09-20T14:19:09.691Z,58.41
2022-09-20T14:21:38.221Z,58.68
2022-09-20T14:24:27.523Z,57.84
2022-09-20T14:27:20.887Z,57.38
2022-09-20T14:29:50.751Z,55.31
2022-09-20T14:32:17.364Z,56.39
2022-09-20T14:34:46.764Z,55.44
2022-09-20T14:37:36.767Z,56.21
2022-09-20T14:40:16.609Z,57.30
2022-09-20T14:42:48.439Z,56.31
2022-09-20T14:45:28.082Z,57.10
2022-09-20T14:48:10.457Z,57.47
2022-09-20T14:50:39.905Z,57.59
2022-09-20T14:53:12.635Z,56.30
2022-09-20T14:56:25.519Z,56.31
2022-09-20T14:59:19.208Z,57.39
2022-09-20T15:02:10.350Z,58.30
2022-09-20T15:04:38.043Z,58.40
2022-09-20T15:07:07.063Z,58.68
2022-09-20T15:09:35.239Z,59.63
2022-09-20T15:12:12.134Z,58.73
2022-09-20T15:14:40.646Z,56.45
2022-09-20T15:17:18.117Z,57.75
2022-09-20T15:19:46.164Z,57.82
2022-09-20T15:22:14.129Z,58.14
2022-09-20T15:24:41.578Z,57.35
2022-09-20T15:27:09.366Z,58.42
2022-09-20T15:29:35.996Z,57.97
2022-09-20T15:32:04.506Z,58.23
2022-09-20T15:34:32.123Z,58.80
2022-09-20T15:36:58.811Z,58.58
2022-09-20T15:39:25.926Z,58.99
2022-09-20T15:41:53.459Z,57.65
2022-09-20T15:44:20.700Z,58.87
2022-09-20T15:46:50.084Z,59.99
2022-09-20T15:49:16.921Z,58.12
2022-09-20T15:51:43.586Z,59.02
2022-09-20T15:54:13.168Z,59.07
2022-09-20T15:56:40.453Z,60.22
2022-09-20T15:59:09.347Z,60.71
2022-09-20T16:01:41.776Z,60.61
2022-09-20T16:04:19.242Z,59.25
2022-09-20T16:06:49.438Z,61.50
2022-09-20T16:09:19.508Z,60.82
2022-09-20T16:11:48.231Z,59.79
2022-09-20T16:14:15.443Z,56.83
2022-09-20T16:16:42.091Z,57.84
2022-09-20T16:19:19.617Z,58.07
2022-09-20T16:21:58.294Z,58.17
2022-09-20T16:24:28.557Z,57.61
2022-09-20T16:26:55.447Z,58.80
2022-09-20T16:29:22.398Z,58.62
2022-09-20T16:31:50.334Z,60.59
2022-09-20T16:34:21.988Z,59.50
2022-09-20T16:36:54.202Z,59.14
2022-09-20T16:39:27.661Z,60.98
2022-09-20T16:41:57.285Z,60.66
2022-09-20T16:44:24.581Z,60.40
2022-09-20T16:46:51.484Z,63.32
2022-09-20T16:49:18.467Z,62.87
2022-09-20T16:51:46.337Z,63.17
2022-09-20T16:54:15.455Z,62.46
2022-09-20T16:56:47.526Z,62.47
2022-09-20T16:59:16.302Z,63.01
2022-09-20T17:01:43.864Z,63.35
2022-09-20T17:04:13.449Z,63.01
2022-09-20T17:06:41.799Z,64.28
2022-09-20T17:09:09.023Z,64.29
2022-09-20T17:11:39.277Z,64.72
2022-09-20T17:14:06.409Z,65.47
2022-09-20T17:16:39.846Z,66.35
2022-09-20T17:19:12.586Z,66.47
2022-09-20T17:21:45.178Z,66.95
2022-09-20T17:24:13.741Z,68.08
2022-09-20T17:26:44.435Z,68.65
2022-09-20T17:29:16.993Z,68.01
2022-09-20T17:31:54.481Z,67.38
2022-09-20T17:34:23.877Z,67.66
2022-09-20T17:36:50.880Z,67.00
2022-09-20T17:39:18.316Z,67.71
2022-09-20T17:41:47.113Z,67.77
2022-09-20T17:44:14.622Z,67.12
2022-09-20T17:46:49.872Z,66.50
2022-09-20T17:49:21.959Z,67.09
2022-09-20T17:51:51.113Z,67.73
2022-09-20T17:54:19.143Z,67.15
2022-09-20T17:56:48.737Z,66.73
2022-09-20T17:59:19.008Z,66.82
2022-09-20T18:01:47.845Z,67.10
2022-09-20T18:04:14.629Z,67.98
2022-09-20T18:06:45.134Z,67.98
2022-09-20T18:09:15.488Z,67.88
2022-09-20T18:11:49.855Z,67.60
2022-09-20T18:14:25.025Z,68.21
2022-09-20T18:16:53.182Z,68.92
2022-09-20T18:19:21.415Z,70.11
2022-09-20T18:21:48.557Z,70.54
2022-09-20T18:24:15.200Z,69.83
2022-09-20T18:26:42.073Z,69.87
2022-09-20T18:29:13.891Z,70.58
2022-09-20T18:31:44.712Z,71.94
2022-09-20T18:34:20.282Z,72.53
2022-09-20T18:36:52.525Z,72.48
2022-09-20T18:39:27.583Z,72.45
2022-09-20T18:41:55.119Z,72.35
2022-09-20T18:44:23.068Z,72.58
2022-09-20T18:46:54.159Z,72.91
2022-09-20T18:49:21.698Z,72.53
2022-09-20T18:51:48.861Z,72.80
2022-09-20T18:54:17.705Z,73.05
2022-09-20T18:56:46.730Z,73.79
2022-09-20T18:59:32.295Z,73.47
2022-09-20T19:02:35.847Z,74.76
2022-09-20T19:05:28.224Z,74.42
2022-09-20T19:08:08.792Z,74.70
2022-09-20T19:10:56.130Z,74.09
2022-09-20T19:13:27.302Z,75.16
2022-09-20T19:16:11.733Z,75.12
2022-09-20T19:18:50.724Z,74.79
2022-09-20T19:21:31.027Z,74.72
2022-09-20T19:24:22.487Z,75.41
2022-09-20T19:26:49.487Z,74.95
2022-09-20T19:29:22.410Z,75.19
2022-09-20T19:31:51.331Z,75.88
2022-09-20T19:34:21.874Z,75.51
2022-09-20T19:37:18.843Z,76.55
2022-09-20T19:39:58.469Z,76.14
2022-09-20T19:42:42.405Z,76.46
2022-09-20T19:45:24.427Z,75.77
2022-09-20T19:47:58.075Z,76.02
2022-09-20T19:50:28.052Z,76.05
2022-09-20T19:52:57.885Z,76.68
2022-09-20T19:55:25.132Z,76.71
2022-09-20T19:57:52.127Z,76.66
2022-09-20T20:00:21.251Z,76.59
2022-09-20T20:02:48.909Z,76.30
2022-09-20T20:05:21.074Z,75.99
2022-09-20T20:08:14.422Z,76.54
2022-09-20T20:11:00.092Z,76.94
2022-09-20T20:13:55.526Z,76.93
2022-09-20T20:16:33.557Z,77.29
2022-09-20T20:19:31.808Z,77.51
2022-09-20T20:22:29.936Z,77.58
2022-09-20T20:24:57.399Z,77.52
2022-09-20T20:27:25.980Z,78.24
2022-09-20T20:29:52.614Z,78.15
2022-09-20T20:32:19.332Z,78.40
2022-09-20T20:34:46.885Z,78.22
2022-09-20T20:37:13.865Z,78.45
2022-09-20T20:39:40.444Z,78.21
2022-09-20T20:42:08.419Z,78.20
2022-09-20T20:44:35.056Z,78.88
2022-09-20T20:47:05.874Z,78.82
2022-09-20T20:49:32.972Z,78.91
2022-09-20T20:52:04.851Z,78.84
2022-09-20T20:54:32.591Z,78.82
2022-09-20T20:56:59.448Z,79.33
2022-09-20T20:59:26.437Z,78.75
2022-09-20T21:01:53.594Z,79.24
2022-09-20T21:04:21.439Z,80.19
2022-09-20T21:06:47.966Z,79.27
2022-09-20T21:09:14.459Z,79.69
2022-09-20T21:11:44.109Z,79.73
2022-09-20T21:14:12.651Z,79.89
2022-09-20T21:16:45.101Z,79.79
2022-09-20T21:19:15.281Z,79.55
2022-09-20T21:21:43.722Z,79.62
2022-09-20T21:24:17.068Z,79.68
2022-09-20T21:26:44.694Z,79.22
2022-09-20T21:29:12.262Z,79.02
2022-09-20T21:31:41.214Z,78.78
2022-09-20T21:34:09.222Z,78.46
2022-09-20T21:36:37.526Z,79.31
2022-09-20T21:39:05.844Z,78.71
2022-09-20T21:41:34.745Z,79.61
2022-09-20T21:44:03.353Z,80.22
2022-09-20T21:46:31.730Z,79.90
2022-09-20T21:49:00.844Z,80.23
2022-09-20T21:51:31.425Z,80.79
2022-09-20T21:54:01.333Z,81.29
2022-09-20T21:56:31.266Z,81.59
2022-09-20T21:58:58.566Z,82.22
2022-09-20T22:01:27.313Z,82.56
2022-09-20T22:04:01.334Z,83.21
2022-09-20T22:06:30.274Z,82.04
2022-09-20T22:09:01.510Z,82.61
2022-09-20T22:11:34.817Z,81.51
2022-09-20T22:14:02.085Z,82.25
2022-09-20T22:16:37.888Z,81.60
2022-09-20T22:19:07.786Z,82.88
2022-09-20T22:21:37.252Z,83.43
2022-09-20T22:24:07.797Z,83.84
2022-09-20T22:26:40.614Z,83.87
2022-09-20T22:29:07.839Z,84.01
2022-09-20T22:31:37.551Z,83.58
2022-09-20T22:34:07.303Z,84.56
2022-09-20T22:36:36.329Z,85.57
2022-09-20T22:39:05.428Z,86.30
2022-09-20T22:41:32.492Z,85.04
2022-09-20T22:44:02.819Z,85.65
2022-09-20T22:46:31.115Z,86.66
2022-09-20T22:48:58.520Z,85.60
2022-09-20T22:51:28.204Z,85.63
2022-09-20T22:53:55.597Z,86.04
2022-09-20T22:56:29.814Z,86.13
2022-09-20T22:59:05.003Z,87.49
2022-09-20T23:01:34.679Z,87.14
2022-09-20T23:04:08.941Z,88.62
2022-09-20T23:07:02.361Z,90.75
2022-09-20T23:09:29.103Z,91.51
2022-09-20T23:11:56.202Z,88.64
2022-09-20T23:14:23.441Z,87.98
2022-09-20T23:16:50.566Z,87.02
2022-09-20T23:19:18.045Z,87.04
2022-09-20T23:21:45.270Z,86.93
2022-09-20T23:24:14.310Z,86.69
2022-09-20T23:26:43.049Z,86.21
2022-09-20T23:29:15.289Z,86.65
2022-09-20T23:31:46.034Z,86.86
2022-09-20T23:34:14.387Z,87.11
2022-09-20T23:36:41.615Z,88.53
2022-09-20T23:39:09.897Z,88.10
2022-09-20T23:41:37.367Z,89.47
2022-09-20T23:44:09.869Z,90.47
2022-09-20T23:46:37.499Z,90.98
2022-09-20T23:49:04.464Z,91.53
2022-09-20T23:51:32.656Z,90.90
2022-09-20T23:53:59.566Z,91.53
2022-09-20T23:56:27.463Z,91.46
2022-09-20T23:58:54.567Z,91.74
